sensor_id;sensor_type;location;lat;lon;timestamp;P1;durP1;ratioP1;P2;durP2;ratioP2
48685;SDS011;34485;51.536;3.816;2023-03-09T00:01:33;48.47;;;24.92;;
48685;SDS011;34485;51.536;3.816;2023-03-09T00:03:59;42.20;;;23.30;;
48685;SDS011;34485;51.536;3.816;2023-03-09T00:06:26;47.45;;;25.35;;
48685;SDS011;34485;51.536;3.816;2023-03-09T00:08:52;54.25;;;25.77;;
48685;SDS011;34485;51.536;3.816;2023-03-09T00:11:18;45.38;;;23.13;;
48685;SDS011;34485;51.536;3.816;2023-03-09T00:13:44;52.03;;;25.27;;
48685;SDS011;34485;51.536;3.816;2023-03-09T00:16:13;43.67;;;22.67;;
48685;SDS011;34485;51.536;3.816;2023-03-09T00:18:41;49.45;;;25.75;;
48685;SDS011;34485;51.536;3.816;2023-03-09T00:21:07;45.55;;;23.92;;
48685;SDS011;34485;51.536;3.816;2023-03-09T00:23:39;47.72;;;25.02;;
48685;SDS011;34485;51.536;3.816;2023-03-09T00:26:06;42.13;;;23.77;;
48685;SDS011;34485;51.536;3.816;2023-03-09T00:28:32;43.70;;;23.43;;
48685;SDS011;34485;51.536;3.816;2023-03-09T00:31:01;54.38;;;27.73;;
48685;SDS011;34485;51.536;3.816;2023-03-09T00:33:29;53.65;;;26.55;;
48685;SDS011;34485;51.536;3.816;2023-03-09T00:35:55;50.95;;;26.13;;
48685;SDS011;34485;51.536;3.816;2023-03-09T00:38:20;49.90;;;27.53;;
48685;SDS011;34485;51.536;3.816;2023-03-09T00:40:46;53.53;;;27.45;;
48685;SDS011;34485;51.536;3.816;2023-03-09T00:43:11;46.87;;;24.60;;
48685;SDS011;34485;51.536;3.816;2023-03-09T00:45:37;43.50;;;24.30;;
48685;SDS011;34485;51.536;3.816;2023-03-09T00:48:03;49.40;;;25.17;;
48685;SDS011;34485;51.536;3.816;2023-03-09T00:50:28;43.08;;;23.85;;
48685;SDS011;34485;51.536;3.816;2023-03-09T00:52:54;45.50;;;24.17;;
48685;SDS011;34485;51.536;3.816;2023-03-09T00:55:20;50.93;;;27.30;;
48685;SDS011;34485;51.536;3.816;2023-03-09T00:57:45;48.63;;;25.38;;
48685;SDS011;34485;51.536;3.816;2023-03-09T01:00:11;40.33;;;21.90;;
48685;SDS011;34485;51.536;3.816;2023-03-09T01:02:37;42.78;;;23.73;;
48685;SDS011;34485;51.536;3.816;2023-03-09T01:05:03;50.37;;;23.70;;
48685;SDS011;34485;51.536;3.816;2023-03-09T01:07:29;49.60;;;24.95;;
48685;SDS011;34485;51.536;3.816;2023-03-09T01:09:57;44.38;;;23.13;;
48685;SDS011;34485;51.536;3.816;2023-03-09T01:12:22;47.03;;;23.97;;
48685;SDS011;34485;51.536;3.816;2023-03-09T01:14:48;46.45;;;24.90;;
48685;SDS011;34485;51.536;3.816;2023-03-09T01:17:15;43.85;;;23.98;;
48685;SDS011;34485;51.536;3.816;2023-03-09T01:19:41;52.90;;;25.45;;
48685;SDS011;34485;51.536;3.816;2023-03-09T01:22:07;58.67;;;28.70;;
48685;SDS011;34485;51.536;3.816;2023-03-09T01:24:32;43.67;;;23.55;;
48685;SDS011;34485;51.536;3.816;2023-03-09T01:26:58;56.47;;;27.93;;
48685;SDS011;34485;51.536;3.816;2023-03-09T01:29:23;54.83;;;26.63;;
48685;SDS011;34485;51.536;3.816;2023-03-09T01:31:49;47.53;;;26.65;;
48685;SDS011;34485;51.536;3.816;2023-03-09T01:34:15;51.40;;;23.23;;
48685;SDS011;34485;51.536;3.816;2023-03-09T01:36:40;43.90;;;23.50;;
48685;SDS011;34485;51.536;3.816;2023-03-09T01:39:06;50.13;;;24.90;;
48685;SDS011;34485;51.536;3.816;2023-03-09T01:41:33;50.28;;;26.33;;
48685;SDS011;34485;51.536;3.816;2023-03-09T01:43:59;50.43;;;25.00;;
48685;SDS011;34485;51.536;3.816;2023-03-09T01:51:25;44.30;;;24.27;;
48685;SDS011;34485;51.536;3.816;2023-03-09T01:53:54;52.10;;;25.15;;
48685;SDS011;34485;51.536;3.816;2023-03-09T01:56:22;49.05;;;24.85;;
48685;SDS011;34485;51.536;3.816;2023-03-09T01:58:50;38.95;;;21.60;;
48685;SDS011;34485;51.536;3.816;2023-03-09T02:01:18;39.85;;;22.40;;
48685;SDS011;34485;51.536;3.816;2023-03-09T02:03:45;50.70;;;24.17;;
48685;SDS011;34485;51.536;3.816;2023-03-09T02:06:17;48.08;;;24.20;;
48685;SDS011;34485;51.536;3.816;2023-03-09T02:08:50;39.70;;;21.00;;
48685;SDS011;34485;51.536;3.816;2023-03-09T02:11:38;43.70;;;23.23;;
48685;SDS011;34485;51.536;3.816;2023-03-09T02:14:04;43.47;;;21.48;;
48685;SDS011;34485;51.536;3.816;2023-03-09T02:16:30;38.88;;;20.10;;
48685;SDS011;34485;51.536;3.816;2023-03-09T02:18:56;49.30;;;23.67;;
48685;SDS011;34485;51.536;3.816;2023-03-09T02:21:43;42.58;;;23.50;;
48685;SDS011;34485;51.536;3.816;2023-03-09T02:24:45;46.42;;;22.33;;
48685;SDS011;34485;51.536;3.816;2023-03-09T02:27:20;40.13;;;21.63;;
48685;SDS011;34485;51.536;3.816;2023-03-09T02:29:47;41.50;;;20.52;;
48685;SDS011;34485;51.536;3.816;2023-03-09T02:32:14;40.97;;;20.17;;
48685;SDS011;34485;51.536;3.816;2023-03-09T02:34:40;48.95;;;24.33;;
48685;SDS011;34485;51.536;3.816;2023-03-09T02:37:23;42.43;;;22.93;;
48685;SDS011;34485;51.536;3.816;2023-03-09T02:40:02;42.40;;;20.15;;
48685;SDS011;34485;51.536;3.816;2023-03-09T02:42:36;41.95;;;21.05;;
48685;SDS011;34485;51.536;3.816;2023-03-09T02:45:03;43.47;;;21.85;;
48685;SDS011;34485;51.536;3.816;2023-03-09T02:47:30;49.60;;;23.77;;
48685;SDS011;34485;51.536;3.816;2023-03-09T02:49:56;38.93;;;17.77;;
48685;SDS011;34485;51.536;3.816;2023-03-09T02:52:22;49.20;;;21.00;;
48685;SDS011;34485;51.536;3.816;2023-03-09T02:54:47;49.97;;;23.43;;
48685;SDS011;34485;51.536;3.816;2023-03-09T02:57:13;55.10;;;24.42;;
48685;SDS011;34485;51.536;3.816;2023-03-09T02:59:39;48.85;;;23.08;;
48685;SDS011;34485;51.536;3.816;2023-03-09T03:02:05;44.25;;;20.80;;
48685;SDS011;34485;51.536;3.816;2023-03-09T03:04:31;48.25;;;23.13;;
48685;SDS011;34485;51.536;3.816;2023-03-09T03:06:57;49.23;;;23.47;;
48685;SDS011;34485;51.536;3.816;2023-03-09T03:09:23;51.97;;;23.73;;
48685;SDS011;34485;51.536;3.816;2023-03-09T03:11:49;55.15;;;25.83;;
48685;SDS011;34485;51.536;3.816;2023-03-09T03:14:14;64.57;;;27.83;;
48685;SDS011;34485;51.536;3.816;2023-03-09T03:16:40;51.87;;;25.27;;
48685;SDS011;34485;51.536;3.816;2023-03-09T03:19:05;63.33;;;27.55;;
48685;SDS011;34485;51.536;3.816;2023-03-09T03:21:31;57.07;;;25.93;;
48685;SDS011;34485;51.536;3.816;2023-03-09T03:23:56;63.80;;;27.48;;
48685;SDS011;34485;51.536;3.816;2023-03-09T03:26:22;60.70;;;27.13;;
48685;SDS011;34485;51.536;3.816;2023-03-09T03:28:48;65.07;;;28.27;;
48685;SDS011;34485;51.536;3.816;2023-03-09T03:31:13;64.88;;;28.17;;
48685;SDS011;34485;51.536;3.816;2023-03-09T03:33:39;46.93;;;21.63;;
48685;SDS011;34485;51.536;3.816;2023-03-09T03:36:05;53.88;;;23.40;;
48685;SDS011;34485;51.536;3.816;2023-03-09T03:38:31;61.55;;;26.25;;
48685;SDS011;34485;51.536;3.816;2023-03-09T03:40:56;58.38;;;27.30;;
48685;SDS011;34485;51.536;3.816;2023-03-09T03:43:22;59.53;;;25.57;;
48685;SDS011;34485;51.536;3.816;2023-03-09T03:45:48;58.97;;;22.73;;
48685;SDS011;34485;51.536;3.816;2023-03-09T03:48:13;65.80;;;24.38;;
48685;SDS011;34485;51.536;3.816;2023-03-09T03:50:39;64.93;;;26.08;;
48685;SDS011;34485;51.536;3.816;2023-03-09T03:53:05;54.60;;;24.27;;
48685;SDS011;34485;51.536;3.816;2023-03-09T03:55:31;53.22;;;25.75;;
48685;SDS011;34485;51.536;3.816;2023-03-09T03:57:57;48.73;;;23.10;;
48685;SDS011;34485;51.536;3.816;2023-03-09T04:00:22;41.88;;;21.17;;
48685;SDS011;34485;51.536;3.816;2023-03-09T04:02:49;45.05;;;22.98;;
48685;SDS011;34485;51.536;3.816;2023-03-09T04:05:15;37.20;;;18.27;;
48685;SDS011;34485;51.536;3.816;2023-03-09T04:07:41;56.95;;;22.45;;
48685;SDS011;34485;51.536;3.816;2023-03-09T04:10:07;49.97;;;24.25;;
48685;SDS011;34485;51.536;3.816;2023-03-09T04:12:33;40.70;;;19.67;;
48685;SDS011;34485;51.536;3.816;2023-03-09T04:14:59;43.58;;;21.75;;
48685;SDS011;34485;51.536;3.816;2023-03-09T04:17:25;40.05;;;19.85;;
48685;SDS011;34485;51.536;3.816;2023-03-09T04:19:50;55.33;;;23.42;;
48685;SDS011;34485;51.536;3.816;2023-03-09T04:22:16;53.60;;;23.73;;
48685;SDS011;34485;51.536;3.816;2023-03-09T04:24:42;57.63;;;25.40;;
48685;SDS011;34485;51.536;3.816;2023-03-09T04:27:07;61.05;;;24.25;;
48685;SDS011;34485;51.536;3.816;2023-03-09T04:29:33;63.27;;;25.80;;
48685;SDS011;34485;51.536;3.816;2023-03-09T04:31:58;62.28;;;26.25;;
48685;SDS011;34485;51.536;3.816;2023-03-09T04:34:24;73.53;;;31.57;;
48685;SDS011;34485;51.536;3.816;2023-03-09T04:36:50;66.30;;;27.85;;
48685;SDS011;34485;51.536;3.816;2023-03-09T04:39:15;59.28;;;25.73;;
48685;SDS011;34485;51.536;3.816;2023-03-09T04:41:41;56.23;;;24.47;;
48685;SDS011;34485;51.536;3.816;2023-03-09T04:44:06;64.93;;;26.73;;
48685;SDS011;34485;51.536;3.816;2023-03-09T04:46:32;63.97;;;26.23;;
48685;SDS011;34485;51.536;3.816;2023-03-09T04:48:58;65.60;;;28.30;;
48685;SDS011;34485;51.536;3.816;2023-03-09T04:51:23;57.72;;;25.80;;
48685;SDS011;34485;51.536;3.816;2023-03-09T04:53:49;63.17;;;26.80;;
48685;SDS011;34485;51.536;3.816;2023-03-09T04:56:15;62.85;;;28.70;;
48685;SDS011;34485;51.536;3.816;2023-03-09T04:58:40;69.50;;;27.13;;
48685;SDS011;34485;51.536;3.816;2023-03-09T05:01:06;66.60;;;26.48;;
48685;SDS011;34485;51.536;3.816;2023-03-09T05:03:32;61.57;;;25.90;;
48685;SDS011;34485;51.536;3.816;2023-03-09T05:05:57;64.63;;;25.00;;
48685;SDS011;34485;51.536;3.816;2023-03-09T05:08:23;51.63;;;21.13;;
48685;SDS011;34485;51.536;3.816;2023-03-09T05:10:49;63.90;;;25.02;;
48685;SDS011;34485;51.536;3.816;2023-03-09T05:13:15;54.67;;;22.17;;
48685;SDS011;34485;51.536;3.816;2023-03-09T05:15:41;69.03;;;25.63;;
48685;SDS011;34485;51.536;3.816;2023-03-09T05:18:07;64.55;;;26.85;;
48685;SDS011;34485;51.536;3.816;2023-03-09T05:20:33;56.50;;;24.70;;
48685;SDS011;34485;51.536;3.816;2023-03-09T05:22:59;63.58;;;27.13;;
48685;SDS011;34485;51.536;3.816;2023-03-09T05:25:26;64.78;;;28.25;;
48685;SDS011;34485;51.536;3.816;2023-03-09T05:27:51;57.33;;;26.05;;
48685;SDS011;34485;51.536;3.816;2023-03-09T05:30:17;68.53;;;27.25;;
48685;SDS011;34485;51.536;3.816;2023-03-09T05:32:44;58.05;;;25.38;;
48685;SDS011;34485;51.536;3.816;2023-03-09T05:35:11;60.95;;;27.50;;
48685;SDS011;34485;51.536;3.816;2023-03-09T05:37:37;59.20;;;26.85;;
48685;SDS011;34485;51.536;3.816;2023-03-09T05:40:03;57.28;;;25.80;;
48685;SDS011;34485;51.536;3.816;2023-03-09T05:42:30;66.90;;;26.77;;
48685;SDS011;34485;51.536;3.816;2023-03-09T05:44:56;70.00;;;26.45;;
48685;SDS011;34485;51.536;3.816;2023-03-09T05:47:22;51.83;;;25.05;;
48685;SDS011;34485;51.536;3.816;2023-03-09T05:49:48;59.50;;;26.53;;
48685;SDS011;34485;51.536;3.816;2023-03-09T05:52:14;63.10;;;26.73;;
48685;SDS011;34485;51.536;3.816;2023-03-09T05:54:40;64.93;;;27.75;;
48685;SDS011;34485;51.536;3.816;2023-03-09T05:57:05;64.03;;;26.20;;
48685;SDS011;34485;51.536;3.816;2023-03-09T05:59:31;60.73;;;25.40;;
48685;SDS011;34485;51.536;3.816;2023-03-09T06:01:56;57.22;;;24.70;;
48685;SDS011;34485;51.536;3.816;2023-03-09T06:04:22;56.23;;;25.40;;
48685;SDS011;34485;51.536;3.816;2023-03-09T06:06:47;63.20;;;26.37;;
48685;SDS011;34485;51.536;3.816;2023-03-09T06:09:13;61.38;;;25.58;;
48685;SDS011;34485;51.536;3.816;2023-03-09T06:11:38;61.17;;;24.80;;
48685;SDS011;34485;51.536;3.816;2023-03-09T06:14:04;63.00;;;27.00;;
48685;SDS011;34485;51.536;3.816;2023-03-09T06:16:30;62.40;;;27.05;;
48685;SDS011;34485;51.536;3.816;2023-03-09T06:18:55;64.73;;;28.43;;
48685;SDS011;34485;51.536;3.816;2023-03-09T06:21:21;69.97;;;27.08;;
48685;SDS011;34485;51.536;3.816;2023-03-09T06:23:47;64.80;;;25.57;;
48685;SDS011;34485;51.536;3.816;2023-03-09T06:26:13;63.08;;;28.45;;
48685;SDS011;34485;51.536;3.816;2023-03-09T06:28:39;64.78;;;27.38;;
48685;SDS011;34485;51.536;3.816;2023-03-09T06:31:06;68.07;;;29.13;;
48685;SDS011;34485;51.536;3.816;2023-03-09T06:33:32;62.80;;;26.05;;
48685;SDS011;34485;51.536;3.816;2023-03-09T06:35:59;64.55;;;26.20;;
48685;SDS011;34485;51.536;3.816;2023-03-09T06:38:26;67.90;;;29.15;;
48685;SDS011;34485;51.536;3.816;2023-03-09T06:40:55;64.85;;;28.10;;
48685;SDS011;34485;51.536;3.816;2023-03-09T06:43:21;64.57;;;27.45;;
48685;SDS011;34485;51.536;3.816;2023-03-09T06:45:47;57.72;;;26.05;;
48685;SDS011;34485;51.536;3.816;2023-03-09T06:48:13;66.07;;;27.80;;
48685;SDS011;34485;51.536;3.816;2023-03-09T06:50:39;68.80;;;27.67;;
48685;SDS011;34485;51.536;3.816;2023-03-09T06:53:05;67.80;;;25.50;;
48685;SDS011;34485;51.536;3.816;2023-03-09T06:55:30;65.67;;;28.17;;
48685;SDS011;34485;51.536;3.816;2023-03-09T06:57:56;66.28;;;27.02;;
48685;SDS011;34485;51.536;3.816;2023-03-09T07:00:22;61.55;;;25.73;;
48685;SDS011;34485;51.536;3.816;2023-03-09T07:02:48;73.28;;;29.67;;
48685;SDS011;34485;51.536;3.816;2023-03-09T07:05:13;81.67;;;28.10;;
48685;SDS011;34485;51.536;3.816;2023-03-09T07:07:39;60.88;;;24.23;;
48685;SDS011;34485;51.536;3.816;2023-03-09T07:10:08;63.45;;;26.75;;
48685;SDS011;34485;51.536;3.816;2023-03-09T07:12:35;65.70;;;28.15;;
48685;SDS011;34485;51.536;3.816;2023-03-09T07:15:00;63.15;;;26.13;;
48685;SDS011;34485;51.536;3.816;2023-03-09T07:17:26;70.13;;;29.90;;
48685;SDS011;34485;51.536;3.816;2023-03-09T07:19:51;59.80;;;26.07;;
48685;SDS011;34485;51.536;3.816;2023-03-09T07:22:17;72.90;;;28.55;;
48685;SDS011;34485;51.536;3.816;2023-03-09T07:24:43;63.33;;;25.40;;
48685;SDS011;34485;51.536;3.816;2023-03-09T07:27:09;76.40;;;28.92;;
48685;SDS011;34485;51.536;3.816;2023-03-09T07:29:34;64.32;;;27.77;;
48685;SDS011;34485;51.536;3.816;2023-03-09T07:32:03;57.42;;;25.50;;
48685;SDS011;34485;51.536;3.816;2023-03-09T07:34:31;63.83;;;27.55;;
48685;SDS011;34485;51.536;3.816;2023-03-09T07:36:57;61.78;;;26.67;;
48685;SDS011;34485;51.536;3.816;2023-03-09T07:39:23;55.57;;;25.10;;
48685;SDS011;34485;51.536;3.816;2023-03-09T07:41:49;55.42;;;26.35;;
48685;SDS011;34485;51.536;3.816;2023-03-09T07:44:14;63.53;;;26.93;;
48685;SDS011;34485;51.536;3.816;2023-03-09T07:46:40;54.13;;;24.80;;
48685;SDS011;34485;51.536;3.816;2023-03-09T07:49:06;55.72;;;26.48;;
48685;SDS011;34485;51.536;3.816;2023-03-09T07:51:32;57.90;;;25.33;;
48685;SDS011;34485;51.536;3.816;2023-03-09T07:53:58;58.72;;;26.10;;
48685;SDS011;34485;51.536;3.816;2023-03-09T07:56:24;50.70;;;23.02;;
48685;SDS011;34485;51.536;3.816;2023-03-09T07:58:51;52.85;;;25.33;;
48685;SDS011;34485;51.536;3.816;2023-03-09T08:01:18;48.88;;;25.70;;
48685;SDS011;34485;51.536;3.816;2023-03-09T08:03:44;54.85;;;24.98;;
48685;SDS011;34485;51.536;3.816;2023-03-09T08:06:11;48.50;;;24.80;;
48685;SDS011;34485;51.536;3.816;2023-03-09T08:08:37;46.03;;;22.95;;
48685;SDS011;34485;51.536;3.816;2023-03-09T08:11:04;48.95;;;24.55;;
48685;SDS011;34485;51.536;3.816;2023-03-09T08:13:30;51.58;;;25.77;;
48685;SDS011;34485;51.536;3.816;2023-03-09T08:15:58;46.17;;;22.80;;
48685;SDS011;34485;51.536;3.816;2023-03-09T08:18:29;55.58;;;27.35;;
48685;SDS011;34485;51.536;3.816;2023-03-09T08:21:02;46.13;;;24.70;;
48685;SDS011;34485;51.536;3.816;2023-03-09T08:23:29;55.67;;;27.25;;
48685;SDS011;34485;51.536;3.816;2023-03-09T08:25:54;49.65;;;23.65;;
48685;SDS011;34485;51.536;3.816;2023-03-09T08:28:20;44.83;;;24.87;;
48685;SDS011;34485;51.536;3.816;2023-03-09T08:30:46;57.45;;;27.55;;
48685;SDS011;34485;51.536;3.816;2023-03-09T08:33:13;46.10;;;25.02;;
48685;SDS011;34485;51.536;3.816;2023-03-09T08:35:41;48.70;;;24.02;;
48685;SDS011;34485;51.536;3.816;2023-03-09T19:00:03;145.27;;;26.17;;
48685;SDS011;34485;51.536;3.816;2023-03-09T19:02:30;203.18;;;29.40;;
48685;SDS011;34485;51.536;3.816;2023-03-09T19:04:56;184.27;;;27.55;;
48685;SDS011;34485;51.536;3.816;2023-03-09T19:07:23;158.00;;;26.42;;
48685;SDS011;34485;51.536;3.816;2023-03-09T19:09:49;189.30;;;26.20;;
48685;SDS011;34485;51.536;3.816;2023-03-09T19:12:16;179.57;;;28.70;;
48685;SDS011;34485;51.536;3.816;2023-03-09T19:14:42;169.68;;;25.08;;
48685;SDS011;34485;51.536;3.816;2023-03-09T19:17:08;179.27;;;26.47;;
48685;SDS011;34485;51.536;3.816;2023-03-09T19:19:33;177.20;;;27.70;;
48685;SDS011;34485;51.536;3.816;2023-03-09T19:21:59;180.73;;;27.63;;
48685;SDS011;34485;51.536;3.816;2023-03-09T19:24:25;140.15;;;25.27;;
48685;SDS011;34485;51.536;3.816;2023-03-09T19:26:51;153.55;;;26.23;;
48685;SDS011;34485;51.536;3.816;2023-03-09T19:29:17;226.70;;;27.40;;
48685;SDS011;34485;51.536;3.816;2023-03-09T19:31:43;168.52;;;26.13;;
48685;SDS011;34485;51.536;3.816;2023-03-09T19:34:09;131.98;;;25.00;;
48685;SDS011;34485;51.536;3.816;2023-03-09T19:36:39;160.27;;;25.50;;
48685;SDS011;34485;51.536;3.816;2023-03-09T19:39:05;141.20;;;21.98;;
48685;SDS011;34485;51.536;3.816;2023-03-09T19:41:31;152.88;;;24.83;;
48685;SDS011;34485;51.536;3.816;2023-03-09T19:44:01;184.77;;;25.93;;
48685;SDS011;34485;51.536;3.816;2023-03-09T19:46:27;127.65;;;23.33;;
48685;SDS011;34485;51.536;3.816;2023-03-09T19:48:54;79.03;;;22.95;;
48685;SDS011;34485;51.536;3.816;2023-03-09T19:51:24;72.32;;;21.83;;
48685;SDS011;34485;51.536;3.816;2023-03-09T19:53:55;71.57;;;20.10;;
48685;SDS011;34485;51.536;3.816;2023-03-09T19:56:23;53.88;;;18.60;;
48685;SDS011;34485;51.536;3.816;2023-03-09T19:58:51;67.15;;;20.15;;
48685;SDS011;34485;51.536;3.816;2023-03-09T20:01:22;68.72;;;20.85;;
48685;SDS011;34485;51.536;3.816;2023-03-09T20:03:58;88.75;;;22.13;;
48685;SDS011;34485;51.536;3.816;2023-03-09T20:06:25;113.90;;;34.43;;
48685;SDS011;34485;51.536;3.816;2023-03-09T20:08:51;102.47;;;36.67;;
48685;SDS011;34485;51.536;3.816;2023-03-09T20:11:20;85.97;;;33.65;;
48685;SDS011;34485;51.536;3.816;2023-03-09T20:13:46;86.88;;;34.40;;
48685;SDS011;34485;51.536;3.816;2023-03-09T20:16:16;99.43;;;40.93;;
48685;SDS011;34485;51.536;3.816;2023-03-09T20:18:42;113.03;;;42.55;;
48685;SDS011;34485;51.536;3.816;2023-03-09T20:21:10;75.60;;;30.75;;
48685;SDS011;34485;51.536;3.816;2023-03-09T20:23:37;97.78;;;34.42;;
48685;SDS011;34485;51.536;3.816;2023-03-09T20:26:04;84.22;;;31.95;;
48685;SDS011;34485;51.536;3.816;2023-03-09T20:28:35;76.53;;;28.23;;
48685;SDS011;34485;51.536;3.816;2023-03-09T20:31:09;102.82;;;31.73;;
48685;SDS011;34485;51.536;3.816;2023-03-09T20:33:40;145.48;;;36.85;;
48685;SDS011;34485;51.536;3.816;2023-03-09T20:36:06;478.55;;;51.65;;
48685;SDS011;34485;51.536;3.816;2023-03-09T20:38:32;119.95;;;34.38;;
48685;SDS011;34485;51.536;3.816;2023-03-09T20:40:59;199.73;;;39.63;;
48685;SDS011;34485;51.536;3.816;2023-03-09T20:43:26;191.63;;;34.50;;
48685;SDS011;34485;51.536;3.816;2023-03-09T20:45:55;142.73;;;29.50;;
48685;SDS011;34485;51.536;3.816;2023-03-09T20:48:23;109.68;;;27.85;;
48685;SDS011;34485;51.536;3.816;2023-03-09T20:50:49;94.40;;;27.67;;
48685;SDS011;34485;51.536;3.816;2023-03-09T20:53:16;81.87;;;24.73;;
48685;SDS011;34485;51.536;3.816;2023-03-09T20:55:42;62.97;;;22.88;;
48685;SDS011;34485;51.536;3.816;2023-03-09T20:58:08;71.43;;;22.67;;
48685;SDS011;34485;51.536;3.816;2023-03-09T21:00:34;61.33;;;21.10;;
48685;SDS011;34485;51.536;3.816;2023-03-09T21:03:00;77.33;;;21.73;;
48685;SDS011;34485;51.536;3.816;2023-03-09T21:05:26;62.67;;;20.98;;
48685;SDS011;34485;51.536;3.816;2023-03-09T21:07:51;78.77;;;22.03;;
48685;SDS011;34485;51.536;3.816;2023-03-09T21:10:17;115.03;;;21.35;;
48685;SDS011;34485;51.536;3.816;2023-03-09T21:12:43;75.45;;;20.75;;
48685;SDS011;34485;51.536;3.816;2023-03-09T21:15:09;114.53;;;22.77;;
48685;SDS011;34485;51.536;3.816;2023-03-09T21:17:35;146.32;;;24.15;;
48685;SDS011;34485;51.536;3.816;2023-03-09T21:20:02;160.15;;;27.05;;
48685;SDS011;34485;51.536;3.816;2023-03-09T21:22:33;108.73;;;25.07;;
48685;SDS011;34485;51.536;3.816;2023-03-09T21:24:58;104.13;;;25.23;;
48685;SDS011;34485;51.536;3.816;2023-03-09T21:27:24;73.15;;;26.15;;
48685;SDS011;34485;51.536;3.816;2023-03-09T21:29:50;85.83;;;26.07;;
48685;SDS011;34485;51.536;3.816;2023-03-09T21:32:16;98.43;;;27.13;;
48685;SDS011;34485;51.536;3.816;2023-03-09T21:34:42;84.95;;;26.75;;
48685;SDS011;34485;51.536;3.816;2023-03-09T21:37:09;97.05;;;27.58;;
48685;SDS011;34485;51.536;3.816;2023-03-09T21:39:35;88.37;;;25.83;;
48685;SDS011;34485;51.536;3.816;2023-03-09T21:42:02;111.20;;;27.77;;
48685;SDS011;34485;51.536;3.816;2023-03-09T21:44:28;91.80;;;24.88;;
48685;SDS011;34485;51.536;3.816;2023-03-09T21:46:54;85.68;;;25.02;;
48685;SDS011;34485;51.536;3.816;2023-03-09T21:49:20;122.27;;;26.30;;
48685;SDS011;34485;51.536;3.816;2023-03-09T21:51:46;104.93;;;24.95;;
48685;SDS011;34485;51.536;3.816;2023-03-09T21:54:12;115.45;;;25.10;;
48685;SDS011;34485;51.536;3.816;2023-03-09T21:56:38;116.87;;;24.27;;
48685;SDS011;34485;51.536;3.816;2023-03-09T21:59:03;104.25;;;23.20;;
48685;SDS011;34485;51.536;3.816;2023-03-09T22:01:31;88.22;;;22.83;;
48685;SDS011;34485;51.536;3.816;2023-03-09T22:03:57;52.50;;;20.97;;
48685;SDS011;34485;51.536;3.816;2023-03-09T22:06:24;47.03;;;19.58;;
48685;SDS011;34485;51.536;3.816;2023-03-09T22:08:52;43.95;;;18.05;;
48685;SDS011;34485;51.536;3.816;2023-03-09T22:11:18;31.10;;;16.30;;
48685;SDS011;34485;51.536;3.816;2023-03-09T22:13:44;50.17;;;17.17;;
48685;SDS011;34485;51.536;3.816;2023-03-09T22:16:17;38.83;;;15.15;;
48685;SDS011;34485;51.536;3.816;2023-03-09T22:18:44;51.47;;;16.52;;
48685;SDS011;34485;51.536;3.816;2023-03-09T22:21:10;44.95;;;15.60;;
48685;SDS011;34485;51.536;3.816;2023-03-09T22:23:36;45.83;;;16.03;;
48685;SDS011;34485;51.536;3.816;2023-03-09T22:26:05;45.00;;;16.40;;
48685;SDS011;34485;51.536;3.816;2023-03-09T22:28:31;49.53;;;17.05;;
48685;SDS011;34485;51.536;3.816;2023-03-09T22:30:57;45.20;;;16.20;;
48685;SDS011;34485;51.536;3.816;2023-03-09T22:33:23;40.33;;;15.45;;
48685;SDS011;34485;51.536;3.816;2023-03-09T22:35:49;37.55;;;15.10;;
48685;SDS011;34485;51.536;3.816;2023-03-09T22:38:26;41.50;;;15.20;;
48685;SDS011;34485;51.536;3.816;2023-03-09T22:40:51;40.83;;;14.93;;
48685;SDS011;34485;51.536;3.816;2023-03-09T22:43:17;36.70;;;13.93;;
48685;SDS011;34485;51.536;3.816;2023-03-09T22:45:42;34.42;;;15.88;;
48685;SDS011;34485;51.536;3.816;2023-03-09T22:48:08;33.50;;;13.70;;
48685;SDS011;34485;51.536;3.816;2023-03-09T22:50:33;34.53;;;14.93;;
48685;SDS011;34485;51.536;3.816;2023-03-09T22:52:59;33.97;;;15.98;;
48685;SDS011;34485;51.536;3.816;2023-03-09T22:55:25;38.17;;;14.53;;
48685;SDS011;34485;51.536;3.816;2023-03-09T22:57:50;37.03;;;12.55;;
48685;SDS011;34485;51.536;3.816;2023-03-09T23:00:16;39.90;;;14.30;;
48685;SDS011;34485;51.536;3.816;2023-03-09T23:02:42;34.63;;;12.77;;
48685;SDS011;34485;51.536;3.816;2023-03-09T23:05:10;33.53;;;12.83;;
48685;SDS011;34485;51.536;3.816;2023-03-09T23:07:37;24.23;;;11.88;;
48685;SDS011;34485;51.536;3.816;2023-03-09T23:10:02;30.10;;;10.73;;
48685;SDS011;34485;51.536;3.816;2023-03-09T23:12:28;26.52;;;11.63;;
48685;SDS011;34485;51.536;3.816;2023-03-09T23:14:54;33.47;;;10.57;;
48685;SDS011;34485;51.536;3.816;2023-03-09T23:17:19;17.40;;;10.90;;
48685;SDS011;34485;51.536;3.816;2023-03-09T23:19:45;25.83;;;9.83;;
48685;SDS011;34485;51.536;3.816;2023-03-09T23:22:11;22.70;;;8.73;;
48685;SDS011;34485;51.536;3.816;2023-03-09T23:24:36;24.63;;;8.75;;
48685;SDS011;34485;51.536;3.816;2023-03-09T23:27:04;27.55;;;9.30;;
48685;SDS011;34485;51.536;3.816;2023-03-09T23:29:30;32.57;;;9.97;;
48685;SDS011;34485;51.536;3.816;2023-03-09T23:31:55;24.23;;;10.73;;
48685;SDS011;34485;51.536;3.816;2023-03-09T23:34:21;17.80;;;9.90;;
48685;SDS011;34485;51.536;3.816;2023-03-09T23:36:46;19.93;;;9.23;;
48685;SDS011;34485;51.536;3.816;2023-03-09T23:39:12;18.47;;;10.17;;
48685;SDS011;34485;51.536;3.816;2023-03-09T23:41:38;25.63;;;9.53;;
48685;SDS011;34485;51.536;3.816;2023-03-09T23:44:03;22.17;;;9.55;;
48685;SDS011;34485;51.536;3.816;2023-03-09T23:46:29;19.67;;;9.90;;
48685;SDS011;34485;51.536;3.816;2023-03-09T23:48:54;20.27;;;8.80;;
48685;SDS011;34485;51.536;3.816;2023-03-09T23:51:20;16.23;;;8.00;;
48685;SDS011;34485;51.536;3.816;2023-03-09T23:53:46;19.70;;;9.30;;
48685;SDS011;34485;51.536;3.816;2023-03-09T23:56:13;22.40;;;10.67;;
48685;SDS011;34485;51.536;3.816;2023-03-09T23:58:41;18.55;;;8.80;;
